createdAt,value
2018-12-14T01:04:09.060Z,95069.78
2018-12-14T01:09:12.388Z,95071.77
2018-12-14T01:14:15.733Z,95072.75
2018-12-14T01:19:19.841Z,95078.45
2018-12-14T01:24:23.171Z,95079.91
2018-12-14T01:29:27.266Z,95083.86
2018-12-14T02:31:33.445Z,95081.65
2018-12-14T02:36:36.804Z,95085.16
2018-12-14T02:41:40.141Z,95076.41
2018-12-14T02:46:44.261Z,95080.80
2018-12-14T02:51:47.606Z,95076.66
2018-12-14T02:56:50.941Z,95077.07
2018-12-14T04:05:19.848Z,95101.22
2018-12-14T04:10:23.192Z,95099.59
2018-12-14T04:15:26.529Z,95104.23
2018-12-14T04:20:30.636Z,95106.17
2018-12-14T04:25:33.968Z,95113.69
2018-12-14T04:30:38.077Z,95125.38
2018-12-14T05:32:46.727Z,95165.78
2018-12-14T05:37:50.256Z,95173.11
2018-12-14T05:42:53.595Z,95174.98
2018-12-14T05:47:56.933Z,95171.88
2018-12-14T05:53:00.275Z,95179.80
2018-12-14T05:58:03.697Z,95184.71
2018-12-14T07:06:20.013Z,95201.39
2018-12-14T07:11:24.133Z,95199.32
2018-12-14T07:16:27.476Z,95200.89
2018-12-14T07:21:30.819Z,95210.34
2018-12-14T07:26:34.163Z,95207.26
2018-12-14T08:35:00.426Z,95263.24
2018-12-14T08:40:03.769Z,95270.55
2018-12-14T08:45:07.107Z,95267.59
2018-12-14T08:50:10.525Z,95279.66
2018-12-14T08:55:13.868Z,95280.52
2018-12-14T09:00:17.211Z,95284.16
2018-12-14T10:02:26.304Z,95320.16
2018-12-14T10:07:29.643Z,95312.94
2018-12-14T10:12:33.731Z,95316.45
2018-12-14T10:17:37.240Z,95313.08
2018-12-14T10:22:41.598Z,95311.27
2018-12-14T10:27:43.973Z,95315.27
2018-12-14T11:30:53.947Z,95329.89
2018-12-14T11:35:57.305Z,95332.53
2018-12-14T11:41:00.656Z,95329.48
2018-12-14T11:46:04.760Z,95331.00
2018-12-14T11:51:08.110Z,95326.47
2018-12-14T11:56:11.440Z,95328.64
2018-12-14T13:04:39.373Z,95316.03
2018-12-14T13:09:42.711Z,95314.33
2018-12-14T13:14:46.049Z,95312.31
2018-12-14T13:19:50.152Z,95313.27
2018-12-14T13:24:53.501Z,95320.75
2018-12-14T13:29:56.853Z,95331.91
2018-12-14T14:32:05.101Z,95385.72
2018-12-14T14:37:08.480Z,95393.62
2018-12-14T14:42:11.824Z,95398.47
2018-12-14T14:47:15.169Z,95399.27
2018-12-14T14:52:18.502Z,95396.52
2018-12-14T14:57:23.328Z,95401.06
2018-12-14T16:00:27.033Z,95462.66
2018-12-14T16:05:32.316Z,95478.48
2018-12-14T16:10:35.285Z,95479.77
2018-12-14T16:15:38.635Z,95481.21
2018-12-14T16:20:41.978Z,95482.09
2018-12-14T16:25:45.321Z,95484.61
2018-12-14T16:30:49.705Z,95488.06
2018-12-14T16:35:53.869Z,95490.19
2018-12-14T16:40:57.195Z,95493.05
2018-12-14T16:46:00.519Z,95500.61
2018-12-14T16:51:04.616Z,95502.81
2018-12-14T16:56:07.944Z,95505.67
2018-12-14T17:01:12.048Z,95501.09
2018-12-14T17:06:15.389Z,95511.11
2018-12-14T17:11:19.487Z,95514.25
2018-12-14T17:16:22.810Z,95516.59
2018-12-14T17:21:26.765Z,95523.02
2018-12-14T17:26:36.365Z,95532.05
2018-12-14T17:31:39.717Z,95534.26
2018-12-14T17:36:43.817Z,95540.59
2018-12-14T17:41:47.154Z,95549.25
2018-12-14T17:46:51.248Z,95549.78
2018-12-14T17:51:54.595Z,95553.42
2018-12-14T17:56:58.695Z,95549.42
2018-12-14T18:02:02.817Z,95555.48
2018-12-14T18:07:06.160Z,95556.97
2018-12-14T18:12:09.495Z,95557.09
2018-12-14T18:17:13.600Z,95564.94
2018-12-14T18:22:16.944Z,95564.24
2018-12-14T18:27:20.279Z,95564.39
2018-12-14T18:32:23.622Z,95567.78
2018-12-14T18:37:26.971Z,95569.16
2018-12-14T18:42:30.325Z,95572.39
2018-12-14T18:47:33.666Z,95574.34
2018-12-14T18:52:37.793Z,95583.09
2018-12-14T18:57:41.893Z,95585.20
2018-12-14T19:02:45.239Z,95583.83
2018-12-14T19:07:52.192Z,95582.50
2018-12-14T19:13:01.553Z,95591.67
2018-12-14T19:18:06.929Z,95596.50
2018-12-14T19:23:19.723Z,95606.99
2018-12-14T19:28:22.216Z,95620.87
2018-12-14T19:33:35.424Z,95614.88
2018-12-14T19:38:38.913Z,95633.22
2018-12-14T19:43:42.265Z,95637.33
2018-12-14T19:48:54.283Z,95641.98
2018-12-14T19:53:58.504Z,95643.05
2018-12-14T19:59:01.866Z,95645.67
2018-12-14T20:04:05.383Z,95652.70
2018-12-14T20:09:09.625Z,95646.81
2018-12-14T20:14:12.978Z,95654.02
2018-12-14T20:19:16.349Z,95658.90
2018-12-14T20:24:20.450Z,95660.02
2018-12-14T20:29:23.822Z,95665.80
2018-12-14T20:34:27.159Z,95666.22
2018-12-14T20:39:30.508Z,95666.70
2018-12-14T20:44:33.852Z,95675.27
2018-12-14T20:49:37.222Z,95672.50
2018-12-14T21:00:07.809Z,95686.36
2018-12-14T21:05:22.568Z,95694.11
2018-12-14T21:10:43.465Z,95684.85
2018-12-14T21:15:48.744Z,95699.73
2018-12-14T21:20:52.097Z,95700.52
2018-12-14T21:25:55.445Z,95696.59
2018-12-14T21:30:58.793Z,95700.57
2018-12-14T21:36:02.136Z,95700.67
2018-12-14T21:41:05.477Z,95700.16
2018-12-14T21:46:08.821Z,95701.47
2018-12-14T21:51:15.912Z,95693.48
2018-12-14T21:56:19.268Z,95691.19
2018-12-14T22:01:46.985Z,95688.30
2018-12-14T22:06:50.336Z,95682.84
2018-12-14T22:11:53.855Z,95691.61
2018-12-14T22:16:58.982Z,95687.75
2018-12-14T22:22:02.327Z,95691.34
2018-12-14T22:27:06.309Z,95698.17
2018-12-14T22:32:09.655Z,95700.66
2018-12-14T22:37:13.756Z,95697.27
2018-12-14T22:42:17.115Z,95700.38
2018-12-14T22:47:20.461Z,95696.22
2018-12-14T22:52:23.820Z,95689.12
2018-12-14T22:57:27.941Z,95681.33
2018-12-14T23:34:12.082Z,95683.34
2018-12-14T23:39:15.409Z,95689.05
2018-12-14T23:44:18.758Z,95687.32
2018-12-14T23:49:22.093Z,95692.14
2018-12-14T23:54:26.189Z,95691.79
2018-12-14T23:59:29.527Z,95698.62
